Ana Sayfa
METAR-TAF:

METAR-TAF

Havaalanları :

Culpeper Regional Airport (T.I. Martin Field)

Culpeper, Virginia, Amerika Birleşik Devletleri

Enlem: 38-31-36N, Boylam: 077-51-32W, yükseklik: 95 m

Güncel hava durumu gözlemi

Rapor saat 15:35 UTC de 20 dakika önce yapıldı.
Rüzgar güneydan 7 kt
Sıcaklık 31°C
Nem 55%
Basınç 1015 hPa
Görüş mesafesi: 16.1 km
Açık gökyüzü

METAR: KCJR 211535Z AUTO 18007KT 10SM CLR 31/21 A2998 RMK AO2 T03060210

Saat: 11:55 (15:55 UTC)


TAF: eksik

4.000'den fazla havaalanı için hava durumu gözlemleri ve tahminleri (METAR ve TAF raporları).

Kullanılabilir istasyonlar harita üzerinde sarı ve kırmızı noktalarla gösterilir.

İstasyonun adını görmek için fareyi noktanın üzerinde gezdirin.

Sonrasında hava gözlem ve tahminlerini görmek için tıklayın.

Haritayı değiştirmek için: yaklaştırmak için siyah artı işaretli yeşil düğmeye ve uzaklaştırmak için de eksi işaretli düğmeye hızla tıklayın; bitişik haritalar için yeşil okları kullanın.


METAR-TAF: